Port Dufferin, Canada
Current Conditions -  °F | °C
As of 8:17 PM on Friday 24 Oct 2014 (Local Time) from CYHZ Reporting Station
Moderate Fog Moderate Fog  
Wind Chill: 13°   Ceiling: 200
Heat Index: 13°   Visibility: 0.5mi
Dew Point: 13°   Wind: 7mph
Humidity: 100%   Direction: 330°NNW
Pressure: 29.42"   Gusts: NA
Location:  44.92°N, 62.38°W
Report Text: CYHZ 242317Z 33006KT 1/2SM R14/2000FT/N R23/5500VP6000FT/D FG VV002 13/13 A2942 RMK FG8 SLP965 DENSITY ALT 900FT
Loading
Personal Weather Stations






























Interactive Weather Map
Tropical Storm Tracking
New forecast layout! Learn more

10-Day Weather Forecast

Advertisements
Track Severe Weather on mobile